Time;durP1;ratioP1;P1;durP2;ratioP2;P2;SDS_P1;SDS_P2;PMS_P1;PMS_P2;Temp;Humidity;BMP_temperature;BMP_pressure;BME280_temperature;BME280_humidity;BME280_pressure;Samples;Min_cycle;Max_cycle;Signal;HPM_P1;HPM_P2
2024/03/14 00:02:11;;;;;;;;;;;;;;;8.35;77.70;95928.28;7394887;19;948;-68
2024/03/14 00:04:39;;;;;;;;;;;;;;;8.31;77.61;95924.09;7394756;19;1134;-70
2024/03/14 00:07:08;;;;;;;;;;;;;;;8.29;77.57;95934.56;7394673;19;1780;-69
2024/03/14 00:09:37;;;;;;;;;;;;;;;8.26;77.55;95932.09;7394197;19;1825;-65
2024/03/14 00:12:05;;;;;;;;;;;;;;;8.29;77.98;95937.19;7394570;19;1029;-68
2024/03/14 00:14:35;;;;;;;;;;;;;;;8.36;77.65;95931.75;7394333;19;1788;-68
2024/03/14 00:17:06;;;;;;;;;;;;;;;8.40;77.67;95928.94;7394054;19;1041;-71
2024/03/14 00:19:34;;;;;;;;;;;;;;;8.40;77.79;95933.31;7393888;19;997;-68
2024/03/14 00:22:03;;;;;;;;;;;;;;;8.40;77.52;95922.88;7394263;19;985;-70
2024/03/14 00:24:31;;;;;;;;;;;;;;;8.28;77.88;95924.22;7401180;19;1930;-68
2024/03/14 00:26:59;;;;;;;;;;;;;;;8.19;78.62;95921.03;7401336;19;1127;-67
2024/03/14 00:29:30;;;;;;;;;;;;;;;8.24;79.00;95917.44;7400468;19;1946;-70
2024/03/14 00:31:59;;;;;;;;;;;;;;;8.29;79.46;95921.53;7401138;19;1220;-68
2024/03/14 00:34:30;;;;;;;;;;;;;;;8.29;79.59;95925.91;7401512;19;1020;-71
2024/03/14 00:36:59;;;;;;;;;;;;;;;8.30;79.88;95918.03;7400965;19;1087;-71
2024/03/14 00:39:31;;;;;;;;;;;;;;;8.32;79.91;95915.34;7400834;19;1108;-72
2024/03/14 00:42:00;;;;;;;;;;;;;;;8.35;79.99;95923.06;7401262;19;1020;-67
2024/03/14 00:44:28;;;;;;;;;;;;;;;8.42;79.99;95921.91;7400668;19;1045;-72
2024/03/14 00:46:57;;;;;;;;;;;;;;;8.49;79.86;95917.28;7400991;19;1874;-66
2024/03/14 00:49:25;;;;;;;;;;;;;;;8.50;79.54;95920.75;7399885;19;1849;-74
2024/03/14 00:51:57;;;;;;;;;;;;;;;8.53;79.63;95915.41;7400962;19;1932;-70
2024/03/14 00:54:25;;;;;;;;;;;;;;;8.57;79.59;95915.28;7400492;19;1037;-71
2024/03/14 00:56:54;;;;;;;;;;;;;;;8.58;79.83;95910.91;7400881;19;1009;-70
2024/03/14 00:59:22;;;;;;;;;;;;;;;8.54;80.01;95915.38;7400248;19;1119;-71
2024/03/14 01:01:50;;;;;;;;;;;;;;;8.63;79.77;95908.97;7400613;19;1020;-71
2024/03/14 01:04:20;;;;;;;;;;;;;;;8.66;79.62;95915.78;7400492;19;961;-69
2024/03/14 01:06:48;;;;;;;;;;;;;;;8.67;79.13;95909.69;7400014;19;1018;-69
2024/03/14 01:09:24;;;;;;;;;;;;;;;8.66;79.16;95900.16;7399705;19;1844;-68
2024/03/14 01:11:53;;;;;;;;;;;;;;;8.67;78.97;95904.47;7397197;19;1643;-70
2024/03/14 01:14:21;;;;;;;;;;;;;;;8.68;78.96;95903.56;7400222;19;1834;-71
2024/03/14 01:16:50;;;;;;;;;;;;;;;8.65;79.03;95896.72;7400173;19;1123;-67
2024/03/14 01:19:19;;;;;;;;;;;;;;;8.64;79.11;95899.38;7400072;19;1033;-70
2024/03/14 01:21:47;;;;;;;;;;;;;;;8.65;79.42;95904.53;7400102;19;1211;-68
2024/03/14 01:24:16;;;;;;;;;;;;;;;8.64;79.26;95905.44;7399776;19;1921;-70
2024/03/14 01:26:48;;;;;;;;;;;;;;;8.64;79.38;95900.22;7399454;19;1140;-72
2024/03/14 01:29:16;;;;;;;;;;;;;;;8.63;79.20;95893.31;7399451;19;1838;-70
2024/03/14 01:31:46;;;;;;;;;;;;;;;8.65;79.53;95898.47;7399668;19;1047;-71
2024/03/14 01:34:14;;;;;;;;;;;;;;;8.68;79.22;95903.56;7398475;19;1033;-66
2024/03/14 01:36:43;;;;;;;;;;;;;;;8.69;79.38;95907.84;7399415;19;1816;-71
2024/03/14 01:39:09;;;;;;;;;;;;;;;8.71;79.05;95901.69;7399247;19;1927;-68
2024/03/14 01:41:38;;;;;;;;;;;;;;;8.72;78.74;95902.50;7396936;19;1028;-70
2024/03/14 01:44:09;;;;;;;;;;;;;;;8.72;78.74;95899.91;7399361;19;1034;-71
2024/03/14 01:46:39;;;;;;;;;;;;;;;8.69;78.97;95895.69;7398717;19;1049;-68
2024/03/14 01:49:07;;;;;;;;;;;;;;;8.60;78.82;95888.22;7398658;19;994;-72
2024/03/14 01:51:36;;;;;;;;;;;;;;;8.52;79.32;95893.69;7396680;19;1853;-67
2024/03/14 01:54:04;;;;;;;;;;;;;;;8.45;79.56;95895.72;7398997;19;1911;-68
2024/03/14 01:56:33;;;;;;;;;;;;;;;8.44;79.37;95894.03;7398897;19;1857;-71
2024/03/14 01:59:01;;;;;;;;;;;;;;;8.46;79.25;95894.81;7398409;19;1266;-69
2024/03/14 02:01:32;;;;;;;;;;;;;;;8.49;79.47;95895.59;7398319;19;1151;-68
2024/03/14 02:04:07;;;;;;;;;;;;;;;8.49;80.11;95893.81;7398809;19;1035;-70
2024/03/14 02:06:39;;;;;;;;;;;;;;;8.57;79.72;95898.78;7398720;19;1025;-66
2024/03/14 02:09:08;;;;;;;;;;;;;;;8.59;79.63;95892.59;7398098;19;1107;-68
2024/03/14 02:11:36;;;;;;;;;;;;;;;8.59;79.46;95892.59;7396064;19;1845;-68
2024/03/14 02:14:06;;;;;;;;;;;;;;;8.61;80.00;95899.50;7397926;19;1092;-68
2024/03/14 02:16:37;;;;;;;;;;;;;;;8.64;79.58;95894.16;7398325;19;1059;-68
2024/03/14 02:19:07;;;;;;;;;;;;;;;8.65;79.46;95901.06;7397695;19;1044;-73
2024/03/14 02:21:35;;;;;;;;;;;;;;;8.66;79.42;95907.97;7397709;19;1013;-71
2024/03/14 02:24:06;;;;;;;;;;;;;;;8.63;79.76;95901.13;7398048;19;1001;-69
2024/03/14 02:26:41;;;;;;;;;;;;;;;8.64;80.07;95899.38;7398046;19;989;-68
2024/03/14 02:29:10;;;;;;;;;;;;;;;8.66;79.68;95908.84;7397851;19;1063;-70
2024/03/14 02:31:38;;;;;;;;;;;;;;;8.68;79.45;95895.72;7395943;19;1857;-68
2024/03/14 02:34:07;;;;;;;;;;;;;;;8.71;79.02;95899.09;7397255;19;1001;-72
2024/03/14 02:36:35;;;;;;;;;;;;;;;8.73;79.12;95899.00;7397671;19;1231;-70
2024/03/14 02:39:07;;;;;;;;;;;;;;;8.72;79.24;95899.91;7397837;19;1941;-70
2024/03/14 02:41:35;;;;;;;;;;;;;;;8.62;78.78;95890.75;7397527;19;1008;-67
2024/03/14 02:44:15;;;;;;;;;;;;;;;8.60;79.46;95890.81;7397370;19;981;-72
2024/03/14 02:46:44;;;;;;;;;;;;;;;8.61;79.22;95892.50;7394539;19;1025;-69
2024/03/14 02:49:14;;;;;;;;;;;;;;;8.57;79.14;95896.16;7397107;19;1017;-71
2024/03/14 02:51:45;;;;;;;;;;;;;;;8.49;79.51;95903.44;7395297;19;1850;-71
2024/03/14 02:54:17;;;;;;;;;;;;;;;8.45;79.86;95900.06;7396406;19;1014;-70
2024/03/14 02:56:47;;;;;;;;;;;;;;;8.45;79.88;95900.94;7396388;19;1080;-67
2024/03/14 02:59:15;;;;;;;;;;;;;;;8.47;80.05;95901.72;7396768;19;952;-70
2024/03/14 03:01:44;;;;;;;;;;;;;;;8.43;80.30;95897.53;7397008;19;1646;-68
2024/03/14 03:04:14;;;;;;;;;;;;;;;8.42;80.43;95902.81;7396541;19;1928;-66
2024/03/14 03:06:48;;;;;;;;;;;;;;;8.42;80.33;95902.81;7396125;19;1037;-70
2024/03/14 03:09:21;;;;;;;;;;;;;;;8.43;80.16;95901.91;7396456;19;1020;-68
2024/03/14 03:11:49;;;;;;;;;;;;;;;8.42;80.45;95915.84;7394377;19;1857;-68
2024/03/14 03:14:18;;;;;;;;;;;;;;;8.42;80.28;95908.88;7396127;19;1052;-71
2024/03/14 03:16:47;;;;;;;;;;;;;;;8.46;80.04;95907.84;7395708;19;1045;-66
2024/03/14 03:19:15;;;;;;;;;;;;;;;8.45;79.82;95910.50;7396147;19;1916;-68
2024/03/14 03:21:43;;;;;;;;;;;;;;;8.44;80.05;95903.59;7395654;19;1036;-70
2024/03/14 03:24:11;;;;;;;;;;;;;;;8.42;79.93;95901.06;7395553;19;1037;-73
2024/03/14 03:26:43;;;;;;;;;;;;;;;8.40;79.67;95902.03;7393750;19;927;-67
2024/03/14 03:29:12;;;;;;;;;;;;;;;8.39;80.30;95906.38;7395934;19;950;-69
2024/03/14 03:31:41;;;;;;;;;;;;;;;8.40;80.19;95905.47;7393992;19;1857;-70
2024/03/14 03:34:10;;;;;;;;;;;;;;;8.42;80.33;95910.63;7395240;19;1273;-68
2024/03/14 03:36:36;;;;;;;;;;;;;;;8.43;80.34;95904.53;7395546;19;1008;-73
2024/03/14 03:39:12;;;;;;;;;;;;;;;8.45;79.93;95919.19;7393297;19;1017;-73
2024/03/14 03:41:40;;;;;;;;;;;;;;;8.49;79.67;95916.44;7395370;19;925;-68
2024/03/14 03:44:09;;;;;;;;;;;;;;;8.52;79.53;95911.94;7394886;19;1354;-71
2024/03/14 03:46:35;;;;;;;;;;;;;;;8.49;79.64;95919.06;7395727;19;1704;-64
2024/03/14 03:49:03;;;;;;;;;;;;;;;8.50;79.59;95920.75;7394735;19;1177;-69
2024/03/14 03:51:29;;;;;;;;;;;;;;;8.47;79.39;95925.19;7393461;19;1829;-71
2024/03/14 03:53:58;;;;;;;;;;;;;;;8.41;79.47;95917.63;7395019;19;1245;-71
2024/03/14 03:56:24;;;;;;;;;;;;;;;8.40;79.08;95923.72;7394051;19;1096;-73
2024/03/14 03:58:55;;;;;;;;;;;;;;;8.36;78.96;95924.75;7394394;19;1041;-67
2024/03/14 04:01:22;;;;;;;;;;;;;;;8.22;79.14;95920.91;7394408;19;1148;-72
2024/03/14 04:03:52;;;;;;;;;;;;;;;8.15;79.68;95922.06;7392593;19;1013;-66
2024/03/14 04:06:17;;;;;;;;;;;;;;;8.12;80.11;95923.97;7394297;19;1021;-67
2024/03/14 04:08:47;;;;;;;;;;;;;;;8.13;80.33;95920.44;7394727;19;1017;-69
2024/03/14 04:11:15;;;;;;;;;;;;;;;8.17;80.63;95920.25;7393030;19;1857;-71
2024/03/14 04:13:43;;;;;;;;;;;;;;;8.21;80.87;95926.19;7392230;19;1048;-67
2024/03/14 04:16:15;;;;;;;;;;;;;;;8.18;80.40;95918.47;7394074;19;1084;-71
2024/03/14 04:18:44;;;;;;;;;;;;;;;8.11;80.36;95923.09;7394413;19;1033;-69
2024/03/14 04:21:16;;;;;;;;;;;;;;;8.09;80.44;95932.72;7394051;19;1112;-69
2024/03/14 04:23:45;;;;;;;;;;;;;;;8.13;80.70;95928.25;7393953;19;1100;-73
2024/03/14 04:26:17;;;;;;;;;;;;;;;8.17;80.19;95933.28;7393796;19;1057;-69
2024/03/14 04:28:45;;;;;;;;;;;;;;;8.17;80.05;95924.63;7394161;19;936;-71
2024/03/14 04:31:17;;;;;;;;;;;;;;;8.14;80.28;95928.19;7393055;19;1857;-73
2024/03/14 04:33:46;;;;;;;;;;;;;;;8.18;80.25;95927.16;7393688;19;1095;-68
2024/03/14 04:36:16;;;;;;;;;;;;;;;8.24;80.02;95931.28;7393837;19;1803;-69
2024/03/14 04:38:47;;;;;;;;;;;;;;;8.28;79.85;95937.25;7393507;19;1048;-72
2024/03/14 04:41:17;;;;;;;;;;;;;;;8.32;79.84;95936.22;7393424;19;1199;-72
2024/03/14 04:43:45;;;;;;;;;;;;;;;8.32;79.86;95933.59;7393714;19;1018;-71
2024/03/14 04:46:17;;;;;;;;;;;;;;;8.26;79.47;95937.28;7393742;19;1227;-72
2024/03/14 04:48:46;;;;;;;;;;;;;;;8.18;79.40;95941.94;7393235;19;1108;-72
2024/03/14 04:51:14;;;;;;;;;;;;;;;8.13;79.99;95939.50;7392871;19;1845;-70
2024/03/14 04:53:43;;;;;;;;;;;;;;;8.12;80.16;95945.63;7393301;19;1807;-68
2024/03/14 04:56:11;;;;;;;;;;;;;;;8.01;80.51;95948.63;7393053;19;1123;-68
2024/03/14 04:58:40;;;;;;;;;;;;;;;7.95;81.01;95948.88;7393389;19;1036;-71
2024/03/14 05:01:08;;;;;;;;;;;;;;;8.05;81.08;95951.97;7393360;19;1057;-68
2024/03/14 05:03:39;;;;;;;;;;;;;;;8.13;81.12;95947.31;7393234;19;1040;-71
2024/03/14 05:06:08;;;;;;;;;;;;;;;8.14;81.34;95953.38;7392808;19;1120;-71
2024/03/14 05:08:37;;;;;;;;;;;;;;;8.17;81.14;95961.94;7393844;19;1048;-70
2024/03/14 05:11:05;;;;;;;;;;;;;;;8.24;81.01;95952.13;7398550;19;1837;-74
2024/03/14 05:13:37;;;;;;;;;;;;;;;8.27;81.37;95957.22;7397294;19;1017;-71
2024/03/14 05:16:05;;;;;;;;;;;;;;;8.33;81.17;95959.59;7399865;19;1017;-70
2024/03/14 05:18:34;;;;;;;;;;;;;;;8.38;81.28;95959.44;7400560;19;1753;-70
2024/03/14 05:21:10;;;;;;;;;;;;;;;8.45;81.37;95957.41;7399616;19;1119;-71
2024/03/14 05:23:38;;;;;;;;;;;;;;;8.51;81.19;95958.94;7399592;19;1052;-72
2024/03/14 05:26:09;;;;;;;;;;;;;;;8.54;81.22;95958.84;7399471;19;1036;-72
2024/03/14 05:28:37;;;;;;;;;;;;;;;8.58;81.13;95958.66;7399448;19;1128;-69
2024/03/14 05:31:06;;;;;;;;;;;;;;;8.63;80.78;95963.72;7398827;19;1846;-66
2024/03/14 05:33:35;;;;;;;;;;;;;;;8.64;80.74;95965.41;7399707;19;956;-70
2024/03/14 05:36:07;;;;;;;;;;;;;;;8.69;80.90;95965.22;7399230;19;1096;-69
2024/03/14 05:38:35;;;;;;;;;;;;;;;8.74;81.14;95968.50;7399033;19;1111;-73
2024/03/14 05:41:04;;;;;;;;;;;;;;;8.77;80.88;95968.38;7399853;19;1786;-70
2024/03/14 05:43:34;;;;;;;;;;;;;;;8.82;80.73;95968.22;7399344;19;957;-70
2024/03/14 05:46:03;;;;;;;;;;;;;;;8.89;80.82;95969.66;7399322;19;1021;-71
2024/03/14 05:48:32;;;;;;;;;;;;;;;8.96;81.05;95976.31;7399523;19;1731;-69
2024/03/14 05:51:00;;;;;;;;;;;;;;;9.05;81.33;95980.31;7398026;19;1830;-68
2024/03/14 05:53:31;;;;;;;;;;;;;;;9.10;81.32;95975.72;7399148;19;1061;-67
2024/03/14 05:56:01;;;;;;;;;;;;;;;9.12;80.38;95986.09;7398957;19;1024;-71
2024/03/14 05:58:30;;;;;;;;;;;;;;;9.15;80.94;95983.38;7398464;19;1100;-68
2024/03/14 06:01:02;;;;;;;;;;;;;;;9.18;81.03;95979.81;7398469;19;1084;-71
2024/03/14 06:03:31;;;;;;;;;;;;;;;9.20;81.17;95984.03;7398226;19;1033;-70
2024/03/14 06:06:00;;;;;;;;;;;;;;;9.21;81.30;95980.50;7398532;19;1966;-68
2024/03/14 06:08:31;;;;;;;;;;;;;;;9.30;81.85;95981.88;7398116;19;1831;-67
2024/03/14 06:11:00;;;;;;;;;;;;;;;9.36;81.41;95986.00;7396721;19;1856;-70
2024/03/14 06:13:28;;;;;;;;;;;;;;;9.42;80.84;95983.13;7398009;19;1178;-68
2024/03/14 06:15:57;;;;;;;;;;;;;;;9.49;80.55;95988.97;7397985;19;1040;-67
2024/03/14 06:18:25;;;;;;;;;;;;;;;9.57;80.68;96001.69;7398059;19;1839;-67
2024/03/14 06:20:54;;;;;;;;;;;;;;;9.64;81.55;95997.03;7397875;19;1896;-70
2024/03/14 06:23:22;;;;;;;;;;;;;;;9.58;81.40;95999.00;7397565;19;1170;-69
2024/03/14 06:25:54;;;;;;;;;;;;;;;9.51;81.24;95994.13;7397533;19;1017;-68
2024/03/14 06:28:23;;;;;;;;;;;;;;;9.49;80.77;95999.41;7397301;19;1138;-70
2024/03/14 06:30:51;;;;;;;;;;;;;;;9.52;79.66;96001.88;7397090;19;1850;-72
2024/03/14 06:33:20;;;;;;;;;;;;;;;9.61;79.01;95996.25;7397201;19;1037;-67
2024/03/14 06:35:48;;;;;;;;;;;;;;;9.73;78.32;96004.50;7397977;19;1679;-67
2024/03/14 06:38:17;;;;;;;;;;;;;;;9.83;78.47;96005.78;7397119;19;1005;-72
2024/03/14 06:40:45;;;;;;;;;;;;;;;9.89;78.44;96007.28;7397399;19;1823;-67
2024/03/14 06:43:16;;;;;;;;;;;;;;;9.84;80.13;96014.44;7397669;19;1657;-71
2024/03/14 06:45:45;;;;;;;;;;;;;;;9.91;80.28;96008.06;7396826;19;1021;-71
2024/03/14 06:48:14;;;;;;;;;;;;;;;9.97;80.28;96014.78;7397027;19;1914;-68
2024/03/14 06:50:43;;;;;;;;;;;;;;;9.97;80.72;96015.63;7397201;19;984;-67
2024/03/14 06:53:11;;;;;;;;;;;;;;;10.02;80.63;96015.41;7394638;19;1871;-73
2024/03/14 06:55:42;;;;;;;;;;;;;;;10.03;80.12;96017.13;7396527;19;1220;-69
2024/03/14 06:58:11;;;;;;;;;;;;;;;10.04;80.01;96029.28;7396827;19;1036;-69
2024/03/14 07:00:42;;;;;;;;;;;;;;;9.98;79.35;96035.63;7396400;19;1048;-68
2024/03/14 07:03:11;;;;;;;;;;;;;;;10.01;79.64;96034.63;7396186;19;1136;-71
2024/03/14 07:05:39;;;;;;;;;;;;;;;10.09;79.51;96032.50;7396519;19;1148;-70
2024/03/14 07:08:08;;;;;;;;;;;;;;;10.11;79.39;96035.06;7395967;19;1042;-74
2024/03/14 07:10:37;;;;;;;;;;;;;;;10.15;79.57;96039.25;7395660;19;1904;-70
2024/03/14 07:13:07;;;;;;;;;;;;;;;10.25;78.91;96031.84;7394397;19;1862;-65
2024/03/14 07:15:39;;;;;;;;;;;;;;;10.18;78.94;96033.88;7396466;19;968;-68
2024/03/14 07:18:11;;;;;;;;;;;;;;;10.21;78.65;96035.53;7395847;19;1131;-67
2024/03/14 07:20:43;;;;;;;;;;;;;;;10.20;78.97;96036.41;7396201;19;1462;-70
2024/03/14 07:23:13;;;;;;;;;;;;;;;10.24;78.79;96038.00;7396080;19;965;-67
2024/03/14 07:25:42;;;;;;;;;;;;;;;10.35;78.23;96040.13;7396101;19;1063;-66
2024/03/14 07:28:12;;;;;;;;;;;;;;;10.41;77.56;96039.84;7395490;19;1157;-66
2024/03/14 07:30:41;;;;;;;;;;;;;;;10.50;77.34;96043.84;7395899;19;1036;-67
2024/03/14 07:33:12;;;;;;;;;;;;;;;10.55;76.10;96036.63;7392643;19;1930;-68
2024/03/14 07:35:44;;;;;;;;;;;;;;;10.61;74.02;96044.22;7395365;19;1076;-66
2024/03/14 07:38:13;;;;;;;;;;;;;;;10.68;71.30;96046.50;7395618;19;1034;-68
2024/03/14 07:40:43;;;;;;;;;;;;;;;10.75;71.28;96050.56;7395130;19;1184;-69
2024/03/14 07:43:11;;;;;;;;;;;;;;;10.81;70.06;96044.19;7395452;19;956;-69
2024/03/14 07:45:40;;;;;;;;;;;;;;;10.92;69.34;96048.91;7395512;19;973;-70
2024/03/14 07:48:10;;;;;;;;;;;;;;;10.99;69.28;96045.94;7395001;19;1021;-67
2024/03/14 07:50:41;;;;;;;;;;;;;;;11.07;70.41;96045.56;7395492;19;1035;-72
2024/03/14 07:53:12;;;;;;;;;;;;;;;11.15;71.12;96049.59;7393424;19;1849;-68
2024/03/14 07:55:41;;;;;;;;;;;;;;;11.23;71.80;96056.13;7394835;19;1026;-71
2024/03/14 07:58:10;;;;;;;;;;;;;;;11.30;72.06;96048.00;7394754;19;1020;-67
2024/03/14 08:00:38;;;;;;;;;;;;;;;11.27;71.50;96040.28;7395257;19;1036;-68
2024/03/14 08:03:08;;;;;;;;;;;;;;;11.33;69.51;96043.47;7394520;19;1057;-70
2024/03/14 08:05:37;;;;;;;;;;;;;;;11.37;69.01;96046.75;7394486;19;1214;-67
2024/03/14 08:08:10;;;;;;;;;;;;;;;11.48;70.18;96047.09;7394364;19;1022;-66
2024/03/14 08:10:45;;;;;;;;;;;;;;;11.61;70.73;96042.09;7393291;19;1257;-68
2024/03/14 08:13:17;;;;;;;;;;;;;;;11.62;67.87;96050.81;7392758;19;1846;-68
2024/03/14 08:15:52;;;;;;;;;;;;;;;11.59;64.46;96046.53;7394149;19;994;-70
2024/03/14 08:18:21;;;;;;;;;;;;;;;11.58;63.67;96052.72;7394551;19;970;-69
2024/03/14 08:20:51;;;;;;;;;;;;;;;11.61;63.85;96052.56;7394441;19;1910;-70
2024/03/14 08:23:23;;;;;;;;;;;;;;;11.69;63.10;96048.72;7394410;19;1043;-68
2024/03/14 08:25:51;;;;;;;;;;;;;;;11.76;61.81;96065.81;7393909;19;1048;-68
2024/03/14 08:28:20;;;;;;;;;;;;;;;11.87;61.26;96067.91;7394084;19;1983;-73
2024/03/14 08:30:48;;;;;;;;;;;;;;;12.03;62.43;96062.72;7394232;19;1012;-66
2024/03/14 08:33:17;;;;;;;;;;;;;;;12.18;61.74;96071.59;7392081;19;1838;-70
2024/03/14 08:35:46;;;;;;;;;;;;;;;12.31;59.01;96069.16;7393821;19;1021;-67
2024/03/14 08:38:15;;;;;;;;;;;;;;;12.31;61.54;96061.31;7394152;19;977;-69
2024/03/14 08:40:46;;;;;;;;;;;;;;;12.07;64.22;96071.31;7393525;19;1092;-69
2024/03/14 08:43:14;;;;;;;;;;;;;;;12.08;64.57;96058.13;7393433;19;1420;-72
2024/03/14 08:45:43;;;;;;;;;;;;;;;12.05;64.45;96063.50;7401264;19;1809;-72
2024/03/14 08:48:11;;;;;;;;;;;;;;;11.85;62.57;96067.13;7401201;19;1029;-70
2024/03/14 08:50:41;;;;;;;;;;;;;;;11.86;62.64;96067.03;7401171;19;961;-67
2024/03/14 08:53:12;;;;;;;;;;;;;;;12.00;64.57;96066.34;7399369;19;1874;-68
2024/03/14 08:55:50;;;;;;;;;;;;;;;11.98;64.01;96068.19;7400919;19;1016;-68
2024/03/14 08:58:21;;;;;;;;;;;;;;;12.12;65.06;96062.28;7400486;19;1041;-68
2024/03/14 09:00:50;;;;;;;;;;;;;;;12.33;64.10;96056.84;7400373;19;1013;-69
2024/03/14 09:03:18;;;;;;;;;;;;;;;12.43;62.49;96067.69;7400634;19;901;-70
2024/03/14 09:05:48;;;;;;;;;;;;;;;12.62;60.49;96062.28;7400640;19;972;-71
2024/03/14 09:08:18;;;;;;;;;;;;;;;12.75;60.77;96057.25;7400191;19;1033;-71
2024/03/14 09:10:47;;;;;;;;;;;;;;;12.87;59.99;96054.88;7398904;19;1759;-70
2024/03/14 09:13:16;;;;;;;;;;;;;;;12.96;58.48;96064.00;7398660;19;1857;-66
2024/03/14 09:15:50;;;;;;;;;;;;;;;13.15;60.26;96061.19;7400266;19;1000;-71
2024/03/14 09:18:24;;;;;;;;;;;;;;;13.36;59.06;96061.78;7399875;19;1108;-69
2024/03/14 09:20:55;;;;;;;;;;;;;;;13.48;57.66;96062.84;7399746;19;1107;-72
2024/03/14 09:23:25;;;;;;;;;;;;;;;13.73;58.46;96063.25;7400095;19;983;-65
2024/03/14 09:25:55;;;;;;;;;;;;;;;13.82;58.68;96057.44;7400056;19;1040;-65
2024/03/14 09:28:25;;;;;;;;;;;;;;;13.99;56.44;96061.72;7399489;19;1016;-71
2024/03/14 09:31:00;;;;;;;;;;;;;;;14.10;56.35;96066.34;7399893;19;1023;-69
2024/03/14 09:33:29;;;;;;;;;;;;;;;14.26;55.54;96071.50;7397315;19;1846;-68
2024/03/14 09:36:00;;;;;;;;;;;;;;;14.41;57.16;96063.63;7399226;19;1004;-72
2024/03/14 09:38:28;;;;;;;;;;;;;;;14.63;56.08;96063.13;7399134;19;939;-67
2024/03/14 09:40:57;;;;;;;;;;;;;;;14.74;58.17;96059.84;7399068;19;1354;-68
2024/03/14 09:43:25;;;;;;;;;;;;;;;14.73;52.70;96063.44;7399249;19;1814;-67
2024/03/14 09:45:56;;;;;;;;;;;;;;;14.70;52.42;96062.75;7399479;19;1024;-69
2024/03/14 09:48:30;;;;;;;;;;;;;;;14.46;52.12;96058.09;7398788;19;1052;-67
2024/03/14 09:50:59;;;;;;;;;;;;;;;14.41;53.49;96058.34;7398688;19;1103;-65
2024/03/14 09:53:30;;;;;;;;;;;;;;;14.30;53.04;96050.28;7397398;19;1871;-70
2024/03/14 09:55:59;;;;;;;;;;;;;;;14.22;54.49;96058.63;7398186;19;988;-70
2024/03/14 09:58:28;;;;;;;;;;;;;;;14.14;53.96;96059.09;7398796;19;983;-72
2024/03/14 10:00:58;;;;;;;;;;;;;;;14.03;55.54;96060.59;7398443;19;1099;-69
2024/03/14 10:03:30;;;;;;;;;;;;;;;13.84;57.76;96058.22;7398753;19;1044;-69
2024/03/14 10:05:58;;;;;;;;;;;;;;;13.72;58.05;96058.91;7398242;19;1123;-66
2024/03/14 10:08:31;;;;;;;;;;;;;;;13.47;55.56;96070.81;7398194;19;1021;-67
2024/03/14 10:10:59;;;;;;;;;;;;;;;13.31;57.00;96063.84;7396587;19;1179;-70
2024/03/14 10:13:29;;;;;;;;;;;;;;;13.02;60.12;96058.41;7397022;19;1805;-71
2024/03/14 10:15:58;;;;;;;;;;;;;;;12.63;64.30;96065.78;7398283;19;996;-69
2024/03/14 10:18:31;;;;;;;;;;;;;;;12.29;64.91;96070.19;7397880;19;1103;-67
2024/03/14 10:21:00;;;;;;;;;;;;;;;12.09;67.55;96066.81;7397765;19;1041;-70
2024/03/14 10:23:28;;;;;;;;;;;;;;;11.74;69.78;96065.88;7397713;19;1017;-70
2024/03/14 10:25:57;;;;;;;;;;;;;;;11.72;69.91;96065.13;7397985;19;1818;-71
2024/03/14 10:28:28;;;;;;;;;;;;;;;11.78;69.70;96063.97;7397478;19;1025;-67
2024/03/14 10:30:57;;;;;;;;;;;;;;;11.74;70.57;96060.66;7397468;19;1065;-66
2024/03/14 10:33:26;;;;;;;;;;;;;;;11.65;70.18;96065.53;7396134;19;1824;-67
2024/03/14 10:36:00;;;;;;;;;;;;;;;11.60;70.62;96063.13;7395623;19;1096;-67
2024/03/14 10:38:35;;;;;;;;;;;;;;;11.50;69.96;96055.72;7397609;19;1011;-69
2024/03/14 10:41:05;;;;;;;;;;;;;;;11.42;70.98;96062.25;7397157;19;1013;-69
2024/03/14 10:43:37;;;;;;;;;;;;;;;11.33;72.30;96067.03;7396933;19;1132;-67
2024/03/14 10:46:07;;;;;;;;;;;;;;;11.24;72.25;96062.25;7397274;19;957;-70
2024/03/14 10:48:38;;;;;;;;;;;;;;;11.17;72.32;96066.06;7396753;19;1080;-69
2024/03/14 10:51:09;;;;;;;;;;;;;;;11.06;73.29;96059.59;7396702;19;1080;-66
2024/03/14 10:53:39;;;;;;;;;;;;;;;11.02;72.00;96063.28;7395895;19;1854;-69
2024/03/14 10:56:15;;;;;;;;;;;;;;;10.89;72.25;96059.53;7397034;19;1028;-68
2024/03/14 10:58:44;;;;;;;;;;;;;;;10.79;72.93;96059.09;7396539;19;1083;-68
2024/03/14 11:01:14;;;;;;;;;;;;;;;10.77;74.36;96069.63;7396463;19;1005;-67
2024/03/14 11:03:43;;;;;;;;;;;;;;;10.83;73.42;96071.13;7396756;19;1000;-70
2024/03/14 11:06:18;;;;;;;;;;;;;;;10.85;74.49;96071.91;7395271;19;1855;-68
2024/03/14 11:08:48;;;;;;;;;;;;;;;10.86;74.70;96071.84;7396571;19;1055;-65
2024/03/14 11:11:20;;;;;;;;;;;;;;;10.91;75.37;96073.38;7394675;19;1442;-66
2024/03/14 11:13:51;;;;;;;;;;;;;;;10.90;75.38;96064.69;7395359;19;1875;-68
2024/03/14 11:16:21;;;;;;;;;;;;;;;10.98;75.69;96065.19;7396488;19;1011;-68
2024/03/14 11:18:55;;;;;;;;;;;;;;;11.11;75.37;96062.00;7396281;19;945;-70
2024/03/14 11:21:31;;;;;;;;;;;;;;;11.23;74.75;96061.38;7395729;19;1076;-67
2024/03/14 11:24:02;;;;;;;;;;;;;;;11.27;74.55;96059.47;7396331;19;1048;-65
2024/03/14 11:26:34;;;;;;;;;;;;;;;11.42;74.16;96060.50;7395762;19;1071;-68
2024/03/14 11:29:05;;;;;;;;;;;;;;;11.53;74.05;96046.84;7395650;19;1119;-67
2024/03/14 11:31:41;;;;;;;;;;;;;;;11.54;72.17;96051.19;7395643;19;1104;-68
2024/03/14 11:34:16;;;;;;;;;;;;;;;11.59;72.68;96057.03;7394017;19;1917;-70
2024/03/14 11:36:48;;;;;;;;;;;;;;;11.66;72.04;96047.09;7395829;19;1020;-68
2024/03/14 11:39:22;;;;;;;;;;;;;;;11.80;72.74;96051.63;7395652;19;1036;-68
2024/03/14 11:41:50;;;;;;;;;;;;;;;11.94;71.89;96056.19;7395184;19;1083;-68
2024/03/14 11:44:21;;;;;;;;;;;;;;;12.09;71.93;96056.34;7395137;19;1080;-67
2024/03/14 11:46:55;;;;;;;;;;;;;;;12.18;68.94;96053.25;7395523;19;1039;-70
2024/03/14 11:49:27;;;;;;;;;;;;;;;12.30;69.57;96056.13;7394887;19;1084;-68
2024/03/14 11:51:59;;;;;;;;;;;;;;;12.35;67.24;96054.13;7394875;19;1088;-70
2024/03/14 11:54:27;;;;;;;;;;;;;;;12.42;68.07;96057.25;7393768;19;1916;-67
2024/03/14 11:56:59;;;;;;;;;;;;;;;12.44;67.62;96058.03;7395267;19;1026;-70
2024/03/14 11:59:28;;;;;;;;;;;;;;;12.48;62.48;96064.81;7394594;19;1032;-65
2024/03/14 12:01:56;;;;;;;;;;;;;;;12.39;64.68;96063.53;7394595;19;1167;-70
2024/03/14 12:04:25;;;;;;;;;;;;;;;12.44;63.85;96064.16;7394468;19;1010;-68
2024/03/14 12:06:54;;;;;;;;;;;;;;;12.57;64.87;96061.72;7394981;19;1023;-70
2024/03/14 12:09:30;;;;;;;;;;;;;;;12.64;64.80;96064.81;7394415;19;1057;-65
2024/03/14 12:11:59;;;;;;;;;;;;;;;12.70;63.56;96068.94;7392399;19;1159;-67
2024/03/14 12:14:28;;;;;;;;;;;;;;;12.47;63.36;96065.75;7393264;19;1842;-66
2024/03/14 12:16:57;;;;;;;;;;;;;;;12.59;65.33;96065.09;7394221;19;1199;-66
2024/03/14 12:19:25;;;;;;;;;;;;;;;12.65;65.70;96079.66;7401492;19;977;-66
2024/03/14 12:22:00;;;;;;;;;;;;;;;12.29;58.37;96078.91;7401819;19;1099;-66
2024/03/14 12:24:31;;;;;;;;;;;;;;;12.13;59.33;96077.06;7402042;19;1032;-66
2024/03/14 12:27:00;;;;;;;;;;;;;;;12.18;60.25;96079.47;7401529;19;1025;-64
2024/03/14 12:29:28;;;;;;;;;;;;;;;12.26;63.08;96079.91;7401437;19;1021;-67
2024/03/14 12:31:58;;;;;;;;;;;;;;;12.17;57.56;96093.50;7401789;19;1892;-71
2024/03/14 12:34:27;;;;;;;;;;;;;;;12.17;56.87;96090.88;7399626;19;1850;-69
2024/03/14 12:36:57;;;;;;;;;;;;;;;12.30;56.26;96098.94;7401574;19;1835;-68
2024/03/14 12:39:26;;;;;;;;;;;;;;;12.25;57.61;96093.09;7401155;19;1099;-66
2024/03/14 12:41:57;;;;;;;;;;;;;;;12.16;57.50;96089.16;7401100;19;1034;-67
2024/03/14 12:44:28;;;;;;;;;;;;;;;12.00;56.61;96091.69;7401436;19;1052;-69
2024/03/14 12:46:56;;;;;;;;;;;;;;;11.80;58.23;96097.97;7401380;19;1043;-68
2024/03/14 12:49:25;;;;;;;;;;;;;;;11.62;56.50;96090.09;7400785;19;1258;-68
2024/03/14 12:51:57;;;;;;;;;;;;;;;11.65;56.73;96087.31;7400749;19;1171;-70
2024/03/14 12:54:34;;;;;;;;;;;;;;;11.75;57.04;96092.94;7398849;19;1840;-69
2024/03/14 12:57:06;;;;;;;;;;;;;;;11.72;56.90;96093.97;7401073;19;982;-68
2024/03/14 12:59:35;;;;;;;;;;;;;;;11.74;56.67;96088.66;7400945;19;1036;-67
2024/03/14 13:02:05;;;;;;;;;;;;;;;11.66;56.33;96096.88;7400444;19;1175;-67
2024/03/14 13:04:40;;;;;;;;;;;;;;;11.62;55.82;96098.78;7400824;19;1031;-67
2024/03/14 13:07:18;;;;;;;;;;;;;;;11.52;54.55;96087.06;7400727;19;1020;-70
2024/03/14 13:09:46;;;;;;;;;;;;;;;11.38;55.48;96096.44;7399687;19;1112;-70
2024/03/14 13:12:22;;;;;;;;;;;;;;;11.35;56.38;96090.53;7400143;19;1053;-67
2024/03/14 13:15:10;;;;;;;;;;;;;;;11.14;55.20;96089.78;7397862;19;1842;-67
2024/03/14 13:17:39;;;;;;;;;;;;;;;11.27;56.74;96090.88;7399824;19;1123;-66